Panama City Beach, Florida
Current Conditions -  °F | °C
As of 2:53 AM on Friday 21 Nov 2014 (Local Time) from KECP Reporting Station
NA  
Wind Chill: 40°   Ceiling: NA
Heat Index: 40°   Visibility: NA
Dew Point: 34°   Wind: 0mph
Humidity: 79%   Direction: NA
Pressure: 30.27"   Gusts: NA
Location:  30.21°N, 85.85°W
Report Text: KECP 210853Z AUTO 00000KT 04/01 A3027 RMK AO2 SLP263 T00440011 53007 $
Loading
Personal Weather Stations






























Interactive Weather Map New forecast layout! Learn more

10-Day Weather Forecast

Advertisements
Track Severe Weather on mobile